Time;durP1;ratioP1;P1;durP2;ratioP2;P2;SDS_P1;SDS_P2;PMS_P1;PMS_P2;Temp;Humidity;BMP_temperature;BMP_pressure;BME280_temperature;BME280_humidity;BME280_pressure;Samples;Min_cycle;Max_cycle;Signal;HPM_P1;HPM_P2
2023/03/15 00:01:17;;;;;;;10.20;2.25;;;2.40;99.90;;;;;;5048879;28;20374;-38
2023/03/15 00:03:44;;;;;;;12.07;2.88;;;2.40;99.90;;;;;;5048724;28;20055;-38
2023/03/15 00:06:10;;;;;;;12.80;3.05;;;2.40;99.90;;;;;;5048398;28;20063;-38
2023/03/15 00:08:36;;;;;;;13.43;2.72;;;2.40;99.90;;;;;;5048213;28;20442;-38
2023/03/15 00:11:02;;;;;;;12.18;2.83;;;2.40;99.90;;;;;;5049045;28;20017;-38
2023/03/15 00:13:29;;;;;;;23.38;2.70;;;2.40;99.90;;;;;;5047236;28;20021;-38
2023/03/15 00:16:00;;;;;;;11.98;3.55;;;2.40;99.90;;;;;;5048602;28;20055;-38
2023/03/15 00:18:26;;;;;;;16.10;3.28;;;2.40;99.90;;;;;;5048765;28;20395;-38
2023/03/15 00:20:52;;;;;;;14.80;3.08;;;2.30;99.90;;;;;;5048849;28;20025;-38
2023/03/15 00:23:18;;;;;;;8.80;2.20;;;2.40;99.90;;;;;;5048835;28;20150;-38
2023/03/15 00:25:45;;;;;;;14.93;3.67;;;2.30;99.90;;;;;;5048452;28;20060;-38
2023/03/15 00:28:11;;;;;;;10.85;2.60;;;2.30;99.90;;;;;;5048304;28;20017;-38
2023/03/15 00:30:36;;;;;;;17.83;2.55;;;2.30;99.90;;;;;;5048678;28;20112;-38
2023/03/15 00:33:04;;;;;;;11.98;2.42;;;2.30;99.90;;;;;;5048752;28;20108;-38
2023/03/15 00:35:31;;;;;;;12.32;3.28;;;2.30;99.90;;;;;;5048387;28;20471;-38
2023/03/15 00:37:56;;;;;;;13.45;2.33;;;2.30;99.90;;;;;;5048392;28;20079;-38
2023/03/15 00:40:23;;;;;;;14.50;2.83;;;2.30;99.90;;;;;;5047676;28;20437;-38
2023/03/15 00:42:49;;;;;;;12.55;3.08;;;2.30;99.90;;;;;;5048071;28;20401;-38
2023/03/15 00:45:16;;;;;;;6.82;1.70;;;2.20;99.90;;;;;;5047958;28;20021;-38
2023/03/15 00:47:41;;;;;;;14.90;3.45;;;2.20;99.90;;;;;;5047855;28;20033;-38
2023/03/15 00:50:07;;;;;;;15.25;2.45;;;2.20;99.90;;;;;;5047943;28;20025;-38
2023/03/15 00:52:35;;;;;;;11.02;2.25;;;2.20;99.90;;;;;;5047001;28;20553;-38
2023/03/15 00:55:00;;;;;;;16.15;3.25;;;2.20;99.90;;;;;;5048283;28;20043;-38
2023/03/15 00:57:26;;;;;;;11.93;2.67;;;2.20;99.90;;;;;;5047936;28;20478;-38
2023/03/15 00:59:52;;;;;;;14.43;3.35;;;2.20;99.90;;;;;;5046660;28;20078;-38
2023/03/15 01:02:20;;;;;;;16.08;2.55;;;2.30;99.90;;;;;;5048100;28;20394;-38
2023/03/15 01:04:47;;;;;;;21.25;3.22;;;2.20;99.90;;;;;;5047401;28;20040;-38
2023/03/15 01:07:12;;;;;;;14.35;3.10;;;2.20;99.90;;;;;;5047157;28;20013;-43
2023/03/15 01:09:38;;;;;;;19.65;2.75;;;2.20;99.90;;;;;;5047341;28;20589;-38
2023/03/15 01:12:03;;;;;;;18.08;2.85;;;2.20;99.90;;;;;;5047765;28;20044;-38
2023/03/15 01:14:29;;;;;;;22.42;2.60;;;2.20;99.90;;;;;;5047356;28;20501;-38
2023/03/15 01:16:54;;;;;;;16.48;3.20;;;2.20;99.90;;;;;;5047139;28;20033;-38
2023/03/15 01:19:20;;;;;;;17.10;2.70;;;2.30;99.90;;;;;;5047825;28;20017;-38
2023/03/15 01:21:46;;;;;;;24.00;3.00;;;2.40;99.90;;;;;;5047539;28;20151;-38
2023/03/15 01:24:14;;;;;;;12.25;2.53;;;2.30;99.90;;;;;;5047640;28;20025;-38
2023/03/15 01:26:39;;;;;;;11.43;2.45;;;2.40;99.90;;;;;;5047896;28;20649;-38
2023/03/15 01:29:05;;;;;;;17.35;2.83;;;2.40;99.90;;;;;;5047774;28;20025;-38
2023/03/15 01:31:31;;;;;;;12.52;2.63;;;2.50;99.90;;;;;;5046224;28;20130;-38
2023/03/15 01:33:58;;;;;;;13.70;2.63;;;2.50;99.90;;;;;;5047598;28;20049;-38
2023/03/15 01:36:23;;;;;;;11.52;2.28;;;2.50;99.90;;;;;;5047626;28;20107;-38
2023/03/15 01:38:49;;;;;;;12.02;2.53;;;2.50;99.90;;;;;;5047531;28;20124;-38
2023/03/15 01:41:16;;;;;;;8.68;2.58;;;2.50;99.90;;;;;;5050928;28;20025;-38
2023/03/15 01:43:48;;;;;;;18.63;3.38;;;2.50;99.90;;;;;;5051759;28;20396;-38
2023/03/15 01:46:18;;;;;;;15.35;2.47;;;2.50;99.90;;;;;;5050990;28;20037;-38
2023/03/15 01:49:13;;;;;;;9.10;2.15;;;2.50;99.90;;;;;;5051400;28;20470;-38
2023/03/15 01:51:45;;;;;;;13.48;2.20;;;2.50;99.90;;;;;;5051197;28;20100;-38
2023/03/15 01:54:36;;;;;;;10.13;2.30;;;2.50;99.90;;;;;;5051269;28;20082;-38
2023/03/15 01:57:01;;;;;;;;;;;2.50;99.90;;;;;;5051676;28;20025;-38
2023/03/15 01:59:35;;;;;;;20.05;4.45;;;2.50;99.90;;;;;;5051029;28;19909;-38
2023/03/15 02:02:01;;;;;;;12.20;2.58;;;2.50;99.90;;;;;;5051311;28;20033;-38
2023/03/15 02:04:32;;;;;;;12.95;3.88;;;2.50;99.90;;;;;;5050688;28;20052;-38
2023/03/15 02:07:01;;;;;;;14.18;2.83;;;2.50;99.90;;;;;;5050692;28;20064;-37
2023/03/15 02:09:40;;;;;;;9.40;2.88;;;2.50;99.90;;;;;;5050917;28;20025;-38
2023/03/15 02:12:06;;;;;;;13.13;2.85;;;2.60;99.90;;;;;;5051008;28;20056;-38
2023/03/15 02:14:33;;;;;;;8.68;2.28;;;2.50;99.90;;;;;;5050920;28;20025;-38
2023/03/15 02:16:58;;;;;;;10.68;2.60;;;2.60;99.90;;;;;;5051104;28;20033;-38
2023/03/15 02:19:34;;;;;;;11.90;2.90;;;2.60;99.90;;;;;;5050989;28;20055;-38
2023/03/15 02:22:11;;;;;;;6.45;2.17;;;2.60;99.90;;;;;;5051087;28;20035;-38
2023/03/15 02:24:51;;;;;;;6.68;1.85;;;2.70;99.90;;;;;;5049502;28;20028;-38
2023/03/15 02:27:34;;;;;;;8.05;2.38;;;2.80;99.90;;;;;;5049280;28;20029;-38
2023/03/15 02:30:02;;;;;;;10.82;2.13;;;2.80;99.90;;;;;;5050148;28;20029;-38
2023/03/15 02:32:28;;;;;;;18.30;2.80;;;2.90;99.90;;;;;;5050097;28;20263;-38
2023/03/15 02:34:54;;;;;;;15.65;2.70;;;2.90;99.90;;;;;;5049549;28;20025;-38
2023/03/15 02:37:20;;;;;;;8.18;2.00;;;2.90;99.90;;;;;;5049261;28;20044;-38
2023/03/15 02:39:46;;;;;;;13.45;2.92;;;2.90;99.90;;;;;;5050684;28;20423;-38
2023/03/15 02:42:12;;;;;;;10.40;2.10;;;3.00;99.90;;;;;;5050651;28;20043;-38
2023/03/15 02:44:40;;;;;;;9.85;2.53;;;3.00;99.90;;;;;;5050521;28;20028;-38
2023/03/15 02:47:23;;;;;;;12.20;3.25;;;3.00;99.90;;;;;;5048448;28;20309;-38
2023/03/15 02:49:52;;;;;;;11.75;3.42;;;3.00;99.90;;;;;;5045618;28;20104;-38
2023/03/15 02:52:18;;;;;;;14.98;3.47;;;3.00;99.90;;;;;;5048289;28;20017;-38
2023/03/15 02:54:43;;;;;;;7.38;2.30;;;3.00;99.90;;;;;;5049890;28;20036;-38
2023/03/15 02:57:11;;;;;;;11.73;2.28;;;3.00;99.90;;;;;;5049448;28;20033;-38
2023/03/15 02:59:37;;;;;;;9.85;2.30;;;3.10;99.90;;;;;;5049791;28;20075;-38
2023/03/15 03:02:04;;;;;;;13.65;2.42;;;3.00;99.90;;;;;;5045922;28;20029;-38
2023/03/15 03:04:29;;;;;;;8.70;2.10;;;3.00;99.90;;;;;;5049464;28;20056;-38
2023/03/15 03:06:55;;;;;;;10.00;2.25;;;2.90;99.90;;;;;;5047364;28;20525;-38
2023/03/15 03:09:22;;;;;;;10.23;1.95;;;2.90;99.90;;;;;;5047496;28;20100;-38
2023/03/15 03:11:48;;;;;;;10.90;2.78;;;2.90;99.90;;;;;;5048997;28;20025;-38
2023/03/15 03:14:13;;;;;;;18.52;3.17;;;2.90;99.90;;;;;;5048612;28;20642;-38
2023/03/15 03:16:40;;;;;;;16.92;3.92;;;2.90;99.90;;;;;;5048519;28;20083;-38
2023/03/15 03:19:05;;;;;;;11.43;2.22;;;2.90;99.90;;;;;;5046093;28;20426;-38
2023/03/15 03:21:31;;;;;;;13.27;2.72;;;3.00;99.90;;;;;;5048284;28;20029;-38
2023/03/15 03:23:56;;;;;;;15.20;4.55;;;3.00;99.90;;;;;;5048018;28;20029;-38
2023/03/15 03:26:26;;;;;;;9.73;2.15;;;2.90;99.90;;;;;;5047152;28;20120;-39
2023/03/15 03:28:53;;;;;;;12.43;3.17;;;2.90;99.90;;;;;;5047545;28;20067;-39
2023/03/15 03:31:22;;;;;;;20.95;2.38;;;3.00;99.90;;;;;;5047614;28;20188;-38
2023/03/15 03:33:47;;;;;;;11.15;2.30;;;3.00;99.90;;;;;;5047663;28;20029;-38
2023/03/15 03:36:13;;;;;;;9.57;2.00;;;2.90;99.90;;;;;;5045981;28;20746;-38
2023/03/15 03:38:41;;;;;;;10.43;2.22;;;2.90;99.90;;;;;;5047456;28;20097;-39
2023/03/15 03:41:07;;;;;;;8.77;2.88;;;2.90;99.90;;;;;;5047667;28;20052;-39
2023/03/15 03:43:33;;;;;;;10.45;2.03;;;2.90;99.90;;;;;;5044813;28;20112;-38
2023/03/15 03:45:59;;;;;;;7.63;2.03;;;2.90;99.90;;;;;;5047026;28;20450;-46
2023/03/15 03:48:24;;;;;;;9.38;2.47;;;2.90;99.90;;;;;;5047844;28;20450;-39
2023/03/15 03:50:50;;;;;;;11.15;2.42;;;2.90;99.90;;;;;;5047189;28;20017;-38
2023/03/15 03:53:16;;;;;;;11.32;2.60;;;2.80;99.90;;;;;;5047643;28;20751;-39
2023/03/15 03:55:41;;;;;;;11.48;2.22;;;2.80;99.90;;;;;;5047368;28;20254;-39
2023/03/15 03:58:07;;;;;;;16.52;2.47;;;2.80;99.90;;;;;;5047347;28;20107;-38
2023/03/15 04:00:34;;;;;;;7.57;2.45;;;2.80;99.90;;;;;;5047321;28;20076;-38
2023/03/15 04:03:00;;;;;;;14.77;2.63;;;2.70;99.90;;;;;;5047052;28;20036;-38
2023/03/15 04:05:26;;;;;;;8.82;2.25;;;2.80;99.90;;;;;;5044361;28;20031;-38
2023/03/15 04:07:52;;;;;;;12.43;2.95;;;2.70;99.90;;;;;;5048154;28;20029;-38
2023/03/15 04:10:18;;;;;;;14.52;2.88;;;2.70;99.90;;;;;;5048129;28;20071;-38
2023/03/15 04:12:43;;;;;;;11.70;3.13;;;2.70;99.90;;;;;;5047799;28;20497;-38
2023/03/15 04:15:10;;;;;;;13.38;2.85;;;2.60;99.90;;;;;;5046360;28;20053;-39
2023/03/15 04:17:37;;;;;;;10.88;2.63;;;2.60;99.90;;;;;;5047644;28;20029;-38
2023/03/15 04:20:11;;;;;;;8.00;2.60;;;2.50;99.90;;;;;;5047604;28;20020;-38
2023/03/15 04:22:38;;;;;;;12.20;2.72;;;2.50;99.90;;;;;;5047588;28;20126;-38
2023/03/15 04:25:04;;;;;;;13.75;2.92;;;2.60;99.90;;;;;;5047666;28;20185;-38
2023/03/15 04:27:30;;;;;;;10.38;2.35;;;2.50;99.90;;;;;;5045543;28;20035;-38
2023/03/15 04:29:55;;;;;;;12.95;3.03;;;2.50;99.90;;;;;;5047744;28;20283;-38
2023/03/15 04:32:21;;;;;;;11.73;2.85;;;2.50;99.90;;;;;;5047602;28;20526;-38
2023/03/15 04:34:50;;;;;;;12.68;3.42;;;2.50;99.90;;;;;;5047118;28;20552;-38
2023/03/15 04:37:17;;;;;;;12.25;2.45;;;2.60;99.90;;;;;;5046753;28;20029;-38
2023/03/15 04:39:42;;;;;;;18.95;2.90;;;2.50;99.90;;;;;;5047180;28;20027;-38
2023/03/15 04:42:08;;;;;;;13.10;3.58;;;2.50;99.90;;;;;;5047331;28;20029;-38
2023/03/15 04:44:33;;;;;;;21.58;3.70;;;2.40;99.90;;;;;;5047586;28;20094;-38
2023/03/15 04:46:59;;;;;;;18.67;4.18;;;2.40;99.90;;;;;;5047104;28;20399;-38
2023/03/15 04:49:24;;;;;;;13.05;3.50;;;2.40;99.90;;;;;;5047081;28;20067;-43
2023/03/15 04:51:50;;;;;;;18.33;5.05;;;2.40;99.90;;;;;;5047056;28;20424;-38
2023/03/15 04:54:16;;;;;;;7.20;3.00;;;2.40;99.90;;;;;;5047419;28;20028;-38
2023/03/15 04:56:41;;;;;;;9.88;3.00;;;2.40;99.90;;;;;;5047071;28;20104;-38
2023/03/15 04:59:07;;;;;;;15.13;3.90;;;2.40;99.90;;;;;;5047373;28;20029;-38
2023/03/15 05:01:32;;;;;;;9.07;2.78;;;2.50;99.90;;;;;;5045807;28;20106;-38
2023/03/15 05:03:58;;;;;;;17.90;4.28;;;2.50;99.90;;;;;;5045474;28;20089;-39
2023/03/15 05:06:24;;;;;;;12.88;4.65;;;2.50;99.90;;;;;;5046370;28;20033;-38
2023/03/15 05:08:49;;;;;;;11.25;3.50;;;2.60;99.90;;;;;;5047073;28;20386;-38
2023/03/15 05:11:15;;;;;;;12.65;3.47;;;2.60;99.90;;;;;;5045738;28;20039;-38
2023/03/15 05:13:41;;;;;;;14.00;5.07;;;2.60;99.90;;;;;;5047362;28;20021;-38
2023/03/15 05:16:06;;;;;;;14.32;3.97;;;2.60;99.90;;;;;;5047235;28;20032;-38
2023/03/15 05:18:32;;;;;;;12.93;4.25;;;2.70;99.90;;;;;;5047296;28;20115;-38
2023/03/15 05:20:58;;;;;;;17.45;3.85;;;2.70;99.90;;;;;;5046342;28;20540;-38
2023/03/15 05:23:24;;;;;;;19.15;5.28;;;2.70;99.90;;;;;;5045426;28;20060;-38
2023/03/15 05:25:54;;;;;;;10.38;4.00;;;2.70;99.90;;;;;;5046308;28;20029;-38
2023/03/15 05:28:24;;;;;;;18.23;4.43;;;2.70;99.90;;;;;;5045253;28;20025;-38
2023/03/15 05:30:53;;;;;;;13.88;3.90;;;2.80;99.90;;;;;;5046516;28;20025;-38
2023/03/15 05:33:20;;;;;;;13.68;4.07;;;2.80;99.90;;;;;;5046779;28;20029;-38
2023/03/15 05:35:47;;;;;;;10.68;4.03;;;2.80;99.90;;;;;;5046010;28;20037;-38
2023/03/15 05:38:13;;;;;;;13.48;4.60;;;2.80;99.90;;;;;;5046168;28;20461;-38
2023/03/15 05:40:43;;;;;;;18.80;5.57;;;2.80;99.90;;;;;;5045536;28;20024;-38
2023/03/15 05:43:09;;;;;;;7.20;3.10;;;2.80;99.90;;;;;;5043030;28;20486;-38
2023/03/15 05:45:35;;;;;;;14.52;4.45;;;2.90;99.90;;;;;;5044869;28;20052;-39
2023/03/15 05:48:00;;;;;;;11.50;4.68;;;2.80;99.90;;;;;;5045326;28;20055;-38
2023/03/15 05:50:27;;;;;;;15.18;5.20;;;2.90;99.90;;;;;;5045217;28;20025;-38
2023/03/15 05:52:53;;;;;;;10.20;4.13;;;2.90;99.90;;;;;;5045173;28;20812;-38
2023/03/15 05:55:19;;;;;;;15.70;4.78;;;2.90;99.90;;;;;;5044771;28;20025;-38
2023/03/15 05:57:44;;;;;;;11.20;5.65;;;2.90;99.90;;;;;;5045014;28;20087;-38
2023/03/15 06:00:11;;;;;;;13.77;5.50;;;2.90;99.90;;;;;;5045271;28;20032;-38
2023/03/15 06:02:37;;;;;;;22.65;5.60;;;2.90;99.90;;;;;;5045005;28;20025;-38
2023/03/15 06:05:03;;;;;;;15.30;5.68;;;2.80;99.90;;;;;;5045068;28;20449;-37
2023/03/15 06:07:29;;;;;;;13.80;6.07;;;2.90;99.90;;;;;;5044663;28;20479;-38
2023/03/15 06:09:54;;;;;;;12.70;5.78;;;2.90;99.90;;;;;;5045566;28;20032;-38
2023/03/15 06:12:21;;;;;;;12.15;5.75;;;2.90;99.90;;;;;;5045487;28;20033;-38
2023/03/15 06:14:46;;;;;;;16.25;5.97;;;3.00;99.90;;;;;;5045414;28;20544;-38
2023/03/15 06:17:12;;;;;;;15.48;5.90;;;3.10;99.90;;;;;;5043868;28;20071;-38
2023/03/15 06:19:37;;;;;;;17.42;6.97;;;3.10;99.90;;;;;;5044038;28;20029;-38
2023/03/15 06:22:03;;;;;;;12.75;5.47;;;3.10;99.90;;;;;;5043180;28;20075;-39
2023/03/15 06:24:29;;;;;;;14.43;6.40;;;3.10;99.90;;;;;;5045608;28;20303;-38
2023/03/15 06:26:55;;;;;;;15.73;5.60;;;3.10;99.90;;;;;;5048411;28;20029;-38
2023/03/15 06:29:21;;;;;;;12.07;6.40;;;3.10;99.90;;;;;;5049077;28;20048;-38
2023/03/15 06:31:48;;;;;;;17.35;6.65;;;3.10;99.90;;;;;;5049090;28;20105;-38
2023/03/15 06:34:14;;;;;;;18.60;8.30;;;3.20;99.90;;;;;;5051027;28;20096;-46
2023/03/15 06:36:41;;;;;;;12.27;5.28;;;3.20;99.90;;;;;;5067905;28;20597;-44
2023/03/15 06:39:13;;;;;;;20.33;6.13;;;3.20;99.90;;;;;;5049607;28;20104;-38
2023/03/15 06:41:40;;;;;;;14.05;6.82;;;3.20;99.90;;;;;;5049600;28;20240;-38
2023/03/15 06:44:06;;;;;;;14.68;5.65;;;3.10;99.90;;;;;;5048926;28;20443;-38
2023/03/15 06:46:32;;;;;;;16.08;6.53;;;3.10;99.90;;;;;;5047557;28;20128;-38
2023/03/15 06:48:57;;;;;;;13.57;5.63;;;3.20;99.90;;;;;;5048413;28;20486;-38
2023/03/15 06:51:23;;;;;;;19.38;6.85;;;3.20;99.90;;;;;;5048056;28;20025;-38
2023/03/15 06:53:49;;;;;;;18.10;7.28;;;3.20;99.90;;;;;;5047608;28;20025;-38
2023/03/15 06:56:14;;;;;;;18.50;6.40;;;3.20;99.90;;;;;;5047831;28;20102;-38
2023/03/15 06:58:40;;;;;;;11.07;5.82;;;3.30;99.90;;;;;;5048068;28;20033;-38
2023/03/15 07:01:05;;;;;;;11.85;6.32;;;3.40;99.90;;;;;;5049558;28;20091;-47
2023/03/15 07:03:31;;;;;;;9.23;5.55;;;3.30;99.90;;;;;;5058505;28;20074;-44
2023/03/15 07:05:56;;;;;;;16.80;6.68;;;3.40;99.90;;;;;;5052181;28;20028;-44
2023/03/15 07:08:24;;;;;;;11.63;6.30;;;3.40;99.90;;;;;;5057412;28;20012;-46
2023/03/15 07:10:50;;;;;;;15.68;6.28;;;3.40;99.90;;;;;;5068344;28;20523;-47
2023/03/15 07:13:17;;;;;;;14.27;6.32;;;3.40;99.90;;;;;;5068597;28;20597;-44
2023/03/15 07:15:43;;;;;;;10.15;6.18;;;3.40;99.90;;;;;;5050571;28;20017;-43
2023/03/15 07:18:09;;;;;;;24.65;7.15;;;3.40;99.90;;;;;;5048505;28;20378;-44
2023/03/15 07:20:34;;;;;;;13.48;6.35;;;3.50;99.90;;;;;;5048204;28;20565;-44
2023/03/15 07:23:00;;;;;;;14.88;6.30;;;3.50;99.90;;;;;;5048264;28;20035;-43
2023/03/15 07:25:25;;;;;;;17.67;7.25;;;3.50;99.90;;;;;;5048918;28;20025;-44
2023/03/15 07:27:52;;;;;;;15.55;7.68;;;3.60;99.90;;;;;;5059228;28;20401;-43
2023/03/15 07:30:19;;;;;;;12.70;5.95;;;3.60;99.90;;;;;;5057051;28;20123;-44
2023/03/15 07:32:45;;;;;;;16.00;6.85;;;3.80;99.90;;;;;;5057029;28;20017;-44
2023/03/15 07:35:11;;;;;;;18.33;6.32;;;3.90;99.90;;;;;;5067854;28;20027;-44
2023/03/15 07:37:37;;;;;;;12.60;5.93;;;3.90;99.90;;;;;;5065899;28;20444;-44
2023/03/15 07:40:08;;;;;;;17.92;5.90;;;4.00;99.90;;;;;;5068045;28;20111;-43
2023/03/15 07:42:37;;;;;;;;;;;4.10;99.90;;;;;;5057223;28;20485;-43
2023/03/15 07:45:04;;;;;;;12.60;5.95;;;4.10;99.90;;;;;;5066141;28;19908;-46
2023/03/15 07:47:30;;;;;;;10.13;6.22;;;4.20;99.90;;;;;;5058190;28;20029;-44
2023/03/15 07:49:55;;;;;;;9.55;5.47;;;4.30;99.90;;;;;;5048060;28;20025;-45
2023/03/15 07:52:22;;;;;;;10.48;5.53;;;4.40;99.90;;;;;;5058871;28;20092;-45
2023/03/15 07:54:47;;;;;;;12.23;4.70;;;4.40;99.90;;;;;;5055724;28;20036;-45
2023/03/15 07:57:13;;;;;;;11.43;5.75;;;4.40;99.90;;;;;;5057736;28;20037;-45
2023/03/15 07:59:38;;;;;;;19.20;5.72;;;4.50;99.90;;;;;;5056502;28;20429;-45
2023/03/15 08:02:04;;;;;;;11.32;4.88;;;4.70;99.90;;;;;;5061312;28;20074;-44
2023/03/15 08:04:30;;;;;;;13.77;5.32;;;4.80;99.90;;;;;;5054548;28;20369;-45
2023/03/15 08:06:55;;;;;;;12.00;5.10;;;4.80;99.90;;;;;;5051361;28;20033;-44
2023/03/15 08:09:21;;;;;;;9.70;4.53;;;4.70;99.90;;;;;;5048377;28;20025;-44
2023/03/15 08:11:46;;;;;;;8.38;4.72;;;4.70;99.90;;;;;;5048479;28;20285;-44
2023/03/15 08:14:12;;;;;;;15.82;6.10;;;4.60;99.90;;;;;;5048397;28;20025;-46
2023/03/15 08:16:37;;;;;;;11.88;5.80;;;4.50;99.90;;;;;;5047913;28;20032;-44
2023/03/15 08:19:03;;;;;;;13.15;5.22;;;4.50;99.90;;;;;;5049197;28;20032;-45
2023/03/15 08:21:28;;;;;;;11.20;4.88;;;4.60;99.90;;;;;;5048871;28;20033;-44
2023/03/15 08:23:54;;;;;;;13.80;5.18;;;4.70;99.90;;;;;;5048581;28;20041;-44
2023/03/15 08:26:19;;;;;;;12.88;4.82;;;4.70;99.90;;;;;;5046378;28;20043;-44
2023/03/15 08:28:45;;;;;;;11.48;4.80;;;4.70;99.90;;;;;;5047968;28;20332;-44
2023/03/15 08:31:12;;;;;;;6.30;3.10;;;5.00;99.90;;;;;;5048123;28;20031;-44
2023/03/15 08:33:39;;;;;;;8.48;3.45;;;5.20;99.90;;;;;;5048283;28;20028;-44
2023/03/15 08:36:05;;;;;;;11.35;3.53;;;5.40;99.90;;;;;;5047920;28;20474;-44
2023/03/15 08:38:30;;;;;;;8.45;3.30;;;5.60;99.90;;;;;;5050380;28;20025;-44
2023/03/15 08:40:57;;;;;;;9.90;3.88;;;5.90;99.90;;;;;;5051739;28;20025;-44
2023/03/15 08:43:23;;;;;;;6.85;3.78;;;6.10;99.90;;;;;;5047492;28;20017;-44
2023/03/15 08:45:49;;;;;;;8.80;3.47;;;6.20;99.90;;;;;;5047749;28;20025;-45
2023/03/15 08:48:15;;;;;;;12.90;4.15;;;6.00;99.90;;;;;;5046390;28;20414;-44
2023/03/15 08:50:41;;;;;;;9.60;4.05;;;5.80;99.90;;;;;;5054501;28;20012;-46
2023/03/15 08:53:07;;;;;;;10.27;3.88;;;5.90;99.90;;;;;;5046055;28;20075;-46
2023/03/15 08:55:33;;;;;;;5.43;2.95;;;6.40;99.90;;;;;;5056900;28;20039;-45
2023/03/15 08:58:00;;;;;;;9.82;4.00;;;7.30;99.90;;;;;;5061293;28;20437;-45
2023/03/15 09:00:26;;;;;;;3.90;2.72;;;7.80;99.90;;;;;;5066446;28;20016;-45
2023/03/15 09:02:52;;;;;;;6.40;2.78;;;9.00;99.90;;;;;;5067036;28;20032;-45
2023/03/15 09:05:19;;;;;;;7.72;2.90;;;10.40;97.70;;;;;;5046131;28;20100;-48
2023/03/15 09:07:46;;;;;;;4.80;2.40;;;11.60;95.00;;;;;;5050314;28;20021;-46
2023/03/15 09:10:13;;;;;;;5.18;2.53;;;12.20;93.20;;;;;;5059347;28;20070;-44
2023/03/15 09:12:44;;;;;;;5.65;2.22;;;11.80;90.40;;;;;;5065148;28;20021;-45
2023/03/15 09:15:10;;;;;;;6.43;2.40;;;11.60;89.80;;;;;;5066340;28;20028;-45
2023/03/15 09:17:37;;;;;;;7.55;2.60;;;12.80;89.30;;;;;;5057239;28;20478;-48
2023/03/15 09:20:10;;;;;;;10.27;2.05;;;13.90;82.90;;;;;;5046667;28;20678;-44
2023/03/15 09:22:35;;;;;;;5.70;2.30;;;14.90;76.20;;;;;;5061695;28;20481;-46
2023/03/15 09:25:01;;;;;;;15.70;2.50;;;16.20;71.10;;;;;;5054285;28;20037;-45
2023/03/15 09:27:31;;;;;;;3.80;1.90;;;17.20;67.10;;;;;;5045407;28;20024;-43
2023/03/15 09:29:57;;;;;;;4.13;2.00;;;18.20;65.70;;;;;;5056253;28;20049;-43
2023/03/15 09:32:23;;;;;;;4.70;1.92;;;18.30;63.30;;;;;;5058341;28;20033;-44
2023/03/15 09:34:48;;;;;;;7.10;2.35;;;18.40;60.20;;;;;;5056743;28;20016;-43
2023/03/15 09:37:14;;;;;;;6.40;2.15;;;17.50;62.50;;;;;;5052850;28;20483;-45
2023/03/15 09:39:40;;;;;;;7.32;2.78;;;17.80;61.90;;;;;;5059746;28;20033;-47
2023/03/15 09:42:37;;;;;;;5.93;2.08;;;17.40;60.60;;;;;;5054857;28;20052;-44
2023/03/15 09:45:17;;;;;;;6.05;1.85;;;18.40;62.50;;;;;;5043099;28;20486;-45
2023/03/15 09:48:09;;;;;;;7.15;2.50;;;18.80;59.60;;;;;;5063231;28;20108;-43
2023/03/15 09:50:52;;;;;;;7.55;2.08;;;17.50;58.20;;;;;;5050810;28;20539;-45
2023/03/15 09:53:23;;;;;;;7.55;2.83;;;15.70;61.60;;;;;;5065508;28;20032;-46
2023/03/15 09:55:50;;;;;;;8.23;2.58;;;16.10;62.80;;;;;;5055805;28;20539;-45
2023/03/15 09:58:25;;;;;;;6.57;2.40;;;17.30;60.50;;;;;;5057450;28;20033;-44
2023/03/15 10:00:58;;;;;;;5.20;2.22;;;17.10;60.70;;;;;;5047272;28;20029;-46
2023/03/15 10:03:38;;;;;;;6.63;2.33;;;17.20;60.40;;;;;;5053023;28;20032;-44
2023/03/15 10:06:15;;;;;;;7.20;2.50;;;16.70;60.60;;;;;;5065498;28;20037;-44
2023/03/15 10:08:41;;;;;;;9.38;3.00;;;16.00;61.00;;;;;;5050957;28;20037;-44
2023/03/15 10:11:32;;;;;;;6.95;2.50;;;14.20;64.60;;;;;;5055055;28;20017;-43
2023/03/15 10:14:22;;;;;;;9.90;2.78;;;14.50;68.20;;;;;;5051894;28;20024;-43
2023/03/15 10:16:50;;;;;;;6.33;2.20;;;15.70;65.00;;;;;;5057079;28;20409;-44
2023/03/15 10:19:37;;;;;;;8.40;2.38;;;17.30;60.40;;;;;;5056431;28;20251;-46
2023/03/15 10:22:14;;;;;;;3.70;2.08;;;18.10;60.40;;;;;;5057161;28;20025;-44
2023/03/15 10:24:45;;;;;;;11.82;3.08;;;18.30;58.50;;;;;;5054298;28;20043;-46
2023/03/15 10:27:19;;;;;;;10.10;2.22;;;18.70;56.70;;;;;;5052011;28;20032;-44
2023/03/15 10:29:47;;;;;;;10.07;2.70;;;19.10;59.00;;;;;;5057627;28;20068;-44
2023/03/15 10:32:19;;;;;;;8.18;2.28;;;19.80;57.10;;;;;;5053694;28;20048;-44
2023/03/15 10:34:51;;;;;;;8.32;2.78;;;20.00;52.20;;;;;;5053693;28;20048;-45
2023/03/15 10:37:18;;;;;;;5.28;2.10;;;20.10;56.00;;;;;;5057663;28;20021;-44
2023/03/15 10:39:47;;;;;;;9.38;2.35;;;20.70;53.10;;;;;;5054748;28;20418;-44
2023/03/15 10:42:29;;;;;;;5.85;2.10;;;19.60;53.00;;;;;;5052257;28;20017;-46
2023/03/15 10:44:55;;;;;;;8.73;2.40;;;18.40;53.20;;;;;;5047850;28;20036;-43
2023/03/15 10:47:22;;;;;;;8.00;2.65;;;17.00;55.00;;;;;;5050935;28;20112;-44
2023/03/15 10:49:48;;;;;;;14.60;2.53;;;15.40;58.20;;;;;;5048921;28;20479;-44
2023/03/15 10:52:36;;;;;;;6.18;2.10;;;13.80;60.10;;;;;;5049622;28;20101;-44
2023/03/15 10:55:13;;;;;;;13.52;2.10;;;12.40;63.20;;;;;;5052781;28;20039;-43
2023/03/15 10:57:49;;;;;;;9.13;2.10;;;11.50;66.60;;;;;;5054278;28;20020;-43
2023/03/15 11:00:31;;;;;;;5.70;2.03;;;10.60;68.30;;;;;;5052177;28;20078;-44
2023/03/15 11:03:05;;;;;;;9.98;2.25;;;9.70;71.70;;;;;;5056739;28;20081;-45
2023/03/15 11:05:40;;;;;;;9.48;1.88;;;9.30;74.30;;;;;;5054688;28;20021;-46
2023/03/15 11:08:12;;;;;;;6.35;1.73;;;8.90;77.60;;;;;;5060638;28;20025;-44
2023/03/15 11:10:37;;;;;;;6.85;2.35;;;8.90;80.20;;;;;;5052013;28;20391;-43
2023/03/15 11:13:21;;;;;;;6.15;1.67;;;9.70;84.90;;;;;;5049629;28;20281;-48
2023/03/15 11:15:54;;;;;;;7.55;2.10;;;11.90;74.10;;;;;;5051904;28;20025;-43
2023/03/15 11:18:31;;;;;;;5.53;1.85;;;14.10;69.60;;;;;;5050809;28;20025;-44
2023/03/15 11:20:58;;;;;;;6.03;1.60;;;16.10;63.00;;;;;;5053765;28;20021;-45
2023/03/15 11:23:27;;;;;;;5.55;1.85;;;17.00;63.70;;;;;;5053266;28;20029;-45
2023/03/15 11:25:53;;;;;;;6.30;1.95;;;17.50;62.10;;;;;;5053072;28;20459;-44
2023/03/15 11:28:26;;;;;;;12.75;2.45;;;18.30;59.50;;;;;;5054268;28;20045;-44
2023/03/15 11:30:53;;;;;;;6.82;1.95;;;18.00;54.00;;;;;;5052383;28;20479;-44
2023/03/15 11:33:37;;;;;;;6.43;2.17;;;19.00;51.90;;;;;;5052558;28;20032;-45
2023/03/15 11:36:07;;;;;;;6.00;1.88;;;18.80;52.60;;;;;;5050478;28;20095;-46
2023/03/15 11:38:42;;;;;;;5.90;2.25;;;19.10;54.30;;;;;;5052063;28;20528;-45
2023/03/15 11:41:39;;;;;;;5.20;1.80;;;19.10;54.20;;;;;;5053842;28;20036;-44
2023/03/15 11:44:29;;;;;;;10.63;2.70;;;19.20;54.00;;;;;;5055289;28;21027;-47
2023/03/15 11:47:04;;;;;;;8.32;2.08;;;20.00;47.60;;;;;;5055497;28;20040;-46
2023/03/15 11:49:39;;;;;;;6.95;2.20;;;19.20;48.50;;;;;;5053412;28;20017;-48
2023/03/15 11:52:06;;;;;;;6.30;2.00;;;19.10;50.90;;;;;;5052806;28;20025;-45
2023/03/15 11:54:31;;;;;;;6.22;2.28;;;19.00;52.30;;;;;;5050569;28;20476;-45
2023/03/15 11:57:02;;;;;;;7.55;1.80;;;17.90;51.70;;;;;;5052632;28;20028;-44
2023/03/15 11:59:34;;;;;;;5.55;1.70;;;16.70;51.60;;;;;;5052789;28;20025;-45
2023/03/15 12:02:08;;;;;;;4.88;1.95;;;15.70;52.60;;;;;;5047145;28;20483;-47
2023/03/15 12:04:34;;;;;;;6.40;1.58;;;16.30;53.90;;;;;;5047299;28;20091;-45
2023/03/15 12:07:11;;;;;;;5.88;1.75;;;17.10;55.40;;;;;;5049681;28;20375;-45
2023/03/15 12:09:39;;;;;;;4.93;1.63;;;17.80;51.90;;;;;;5049427;28;20040;-44
2023/03/15 12:12:23;;;;;;;8.93;3.03;;;17.50;50.00;;;;;;5050715;28;20382;-45
2023/03/15 12:15:04;;;;;;;3.67;1.85;;;18.00;51.60;;;;;;5051997;28;20516;-44
2023/03/15 12:17:29;;;;;;;5.53;1.80;;;18.50;52.50;;;;;;5053976;28;20486;-45
2023/03/15 12:20:10;;;;;;;5.28;1.30;;;18.70;48.40;;;;;;5057390;28;20071;-44
2023/03/15 12:22:40;;;;;;;2.90;1.33;;;17.00;50.50;;;;;;5051341;28;20032;-45
2023/03/15 12:25:23;;;;;;;3.65;1.33;;;15.90;52.70;;;;;;5067125;28;20024;-45
2023/03/15 12:27:54;;;;;;;4.40;1.60;;;16.20;53.80;;;;;;5044822;28;20029;-44
2023/03/15 12:30:30;;;;;;;6.68;1.60;;;16.40;51.70;;;;;;5047147;28;20031;-44
2023/03/15 12:32:57;;;;;;;5.75;1.58;;;16.50;51.40;;;;;;5047647;28;20017;-45
2023/03/15 12:35:28;;;;;;;3.92;1.15;;;16.20;53.40;;;;;;5044260;28;20017;-44
2023/03/15 12:37:54;;;;;;;3.85;1.63;;;16.20;50.50;;;;;;5046672;28;20028;-45
2023/03/15 12:40:22;;;;;;;4.35;1.45;;;16.50;52.40;;;;;;5046141;28;20020;-44
2023/03/15 12:42:48;;;;;;;6.55;1.33;;;16.00;53.70;;;;;;5046461;28;20113;-45
2023/03/15 12:45:16;;;;;;;3.33;1.30;;;15.80;49.40;;;;;;5046060;28;20299;-45
2023/03/15 12:47:50;;;;;;;3.58;1.08;;;15.70;53.60;;;;;;5047462;28;20083;-44
2023/03/15 12:50:49;;;;;;;3.35;1.10;;;15.70;48.90;;;;;;5049271;28;20136;-44
2023/03/15 12:53:37;;;;;;;4.22;1.45;;;13.90;51.20;;;;;;5043755;28;20025;-44
2023/03/15 12:56:28;;;;;;;4.22;1.73;;;14.10;49.70;;;;;;5045185;28;20021;-45